sensor_id;sensor_type;location;lat;lon;timestamp;temperature;humidity
21104;DHT22;10710;53.398;-1.514;2023-07-22T00:02:18;15.00;99.90
21104;DHT22;10710;53.398;-1.514;2023-07-22T00:05:02;15.00;99.90
21104;DHT22;10710;53.398;-1.514;2023-07-22T00:07:47;15.10;99.90
21104;DHT22;10710;53.398;-1.514;2023-07-22T00:10:31;15.10;99.90
21104;DHT22;10710;53.398;-1.514;2023-07-22T00:13:16;15.20;99.90
21104;DHT22;10710;53.398;-1.514;2023-07-22T00:16:00;15.10;99.90
21104;DHT22;10710;53.398;-1.514;2023-07-22T00:18:45;15.10;99.90
21104;DHT22;10710;53.398;-1.514;2023-07-22T00:21:29;15.10;99.90
21104;DHT22;10710;53.398;-1.514;2023-07-22T00:24:13;15.10;99.90
21104;DHT22;10710;53.398;-1.514;2023-07-22T00:26:58;15.10;99.90
21104;DHT22;10710;53.398;-1.514;2023-07-22T00:29:43;15.00;99.90
21104;DHT22;10710;53.398;-1.514;2023-07-22T00:32:27;15.10;99.90
21104;DHT22;10710;53.398;-1.514;2023-07-22T00:35:11;15.20;99.90
21104;DHT22;10710;53.398;-1.514;2023-07-22T00:37:55;15.30;99.90
21104;DHT22;10710;53.398;-1.514;2023-07-22T00:40:40;15.20;99.90
21104;DHT22;10710;53.398;-1.514;2023-07-22T00:43:24;15.10;99.90
21104;DHT22;10710;53.398;-1.514;2023-07-22T00:46:09;15.10;99.90
21104;DHT22;10710;53.398;-1.514;2023-07-22T00:48:54;15.20;99.90
21104;DHT22;10710;53.398;-1.514;2023-07-22T00:51:38;15.20;99.90
21104;DHT22;10710;53.398;-1.514;2023-07-22T00:54:22;15.30;99.90
21104;DHT22;10710;53.398;-1.514;2023-07-22T00:57:07;15.40;99.90
21104;DHT22;10710;53.398;-1.514;2023-07-22T00:59:52;15.40;99.90
21104;DHT22;10710;53.398;-1.514;2023-07-22T01:02:36;15.40;99.90
21104;DHT22;10710;53.398;-1.514;2023-07-22T01:05:20;15.50;99.90
21104;DHT22;10710;53.398;-1.514;2023-07-22T01:08:05;15.50;99.90
21104;DHT22;10710;53.398;-1.514;2023-07-22T01:10:50;15.30;99.90
21104;DHT22;10710;53.398;-1.514;2023-07-22T01:13:34;15.30;99.90
21104;DHT22;10710;53.398;-1.514;2023-07-22T01:16:18;15.30;99.90
21104;DHT22;10710;53.398;-1.514;2023-07-22T01:19:03;15.30;99.90
21104;DHT22;10710;53.398;-1.514;2023-07-22T01:21:50;15.10;99.90
21104;DHT22;10710;53.398;-1.514;2023-07-22T01:24:34;15.10;99.90
21104;DHT22;10710;53.398;-1.514;2023-07-22T01:27:20;15.10;99.90
21104;DHT22;10710;53.398;-1.514;2023-07-22T01:30:04;15.20;99.90
21104;DHT22;10710;53.398;-1.514;2023-07-22T01:32:50;15.20;99.90
21104;DHT22;10710;53.398;-1.514;2023-07-22T01:35:34;15.30;99.90
21104;DHT22;10710;53.398;-1.514;2023-07-22T01:38:18;15.40;99.90
21104;DHT22;10710;53.398;-1.514;2023-07-22T01:41:03;15.40;99.90
21104;DHT22;10710;53.398;-1.514;2023-07-22T01:43:48;15.40;99.90
21104;DHT22;10710;53.398;-1.514;2023-07-22T01:46:33;15.40;99.90
21104;DHT22;10710;53.398;-1.514;2023-07-22T01:49:17;15.50;99.90
21104;DHT22;10710;53.398;-1.514;2023-07-22T01:52:02;15.50;99.90
21104;DHT22;10710;53.398;-1.514;2023-07-22T01:54:46;15.50;99.90
21104;DHT22;10710;53.398;-1.514;2023-07-22T01:57:32;15.50;99.90
21104;DHT22;10710;53.398;-1.514;2023-07-22T02:00:16;15.40;99.90
21104;DHT22;10710;53.398;-1.514;2023-07-22T02:03:01;15.40;99.90
21104;DHT22;10710;53.398;-1.514;2023-07-22T02:05:45;15.50;99.90
21104;DHT22;10710;53.398;-1.514;2023-07-22T02:08:30;15.40;99.90
21104;DHT22;10710;53.398;-1.514;2023-07-22T02:11:15;15.40;99.90
21104;DHT22;10710;53.398;-1.514;2023-07-22T02:14:00;15.30;99.90
21104;DHT22;10710;53.398;-1.514;2023-07-22T02:16:45;15.30;99.90
21104;DHT22;10710;53.398;-1.514;2023-07-22T02:19:29;15.30;99.90
21104;DHT22;10710;53.398;-1.514;2023-07-22T02:22:14;15.20;99.90
21104;DHT22;10710;53.398;-1.514;2023-07-22T02:24:59;15.20;99.90
21104;DHT22;10710;53.398;-1.514;2023-07-22T02:27:43;15.30;99.90
21104;DHT22;10710;53.398;-1.514;2023-07-22T02:30:28;15.20;99.90
21104;DHT22;10710;53.398;-1.514;2023-07-22T02:33:13;15.10;99.90
21104;DHT22;10710;53.398;-1.514;2023-07-22T02:35:58;15.00;99.90
21104;DHT22;10710;53.398;-1.514;2023-07-22T02:38:42;15.00;99.90
21104;DHT22;10710;53.398;-1.514;2023-07-22T02:41:27;15.00;99.90
21104;DHT22;10710;53.398;-1.514;2023-07-22T02:44:11;15.00;99.90
21104;DHT22;10710;53.398;-1.514;2023-07-22T02:46:56;15.00;99.90
21104;DHT22;10710;53.398;-1.514;2023-07-22T02:49:41;15.00;99.90
21104;DHT22;10710;53.398;-1.514;2023-07-22T02:52:25;15.00;99.90
21104;DHT22;10710;53.398;-1.514;2023-07-22T02:55:14;15.00;99.90
21104;DHT22;10710;53.398;-1.514;2023-07-22T02:57:58;15.00;99.90
21104;DHT22;10710;53.398;-1.514;2023-07-22T03:00:42;15.10;99.90
21104;DHT22;10710;53.398;-1.514;2023-07-22T03:03:27;15.10;99.90
21104;DHT22;10710;53.398;-1.514;2023-07-22T03:06:12;15.20;99.90
21104;DHT22;10710;53.398;-1.514;2023-07-22T03:08:58;15.20;99.90
21104;DHT22;10710;53.398;-1.514;2023-07-22T03:11:42;15.10;99.90
21104;DHT22;10710;53.398;-1.514;2023-07-22T03:14:26;15.20;99.90
21104;DHT22;10710;53.398;-1.514;2023-07-22T03:17:11;15.00;99.90
21104;DHT22;10710;53.398;-1.514;2023-07-22T03:19:56;15.00;99.90
21104;DHT22;10710;53.398;-1.514;2023-07-22T03:22:41;14.90;99.90
21104;DHT22;10710;53.398;-1.514;2023-07-22T03:25:25;14.80;99.90
21104;DHT22;10710;53.398;-1.514;2023-07-22T03:28:09;14.80;99.90
21104;DHT22;10710;53.398;-1.514;2023-07-22T03:30:53;14.90;99.90
21104;DHT22;10710;53.398;-1.514;2023-07-22T03:33:38;14.90;99.90
21104;DHT22;10710;53.398;-1.514;2023-07-22T03:36:23;15.00;99.90
21104;DHT22;10710;53.398;-1.514;2023-07-22T03:39:07;14.90;99.90
21104;DHT22;10710;53.398;-1.514;2023-07-22T03:41:51;14.90;99.90
21104;DHT22;10710;53.398;-1.514;2023-07-22T03:44:36;14.80;99.90
21104;DHT22;10710;53.398;-1.514;2023-07-22T03:47:20;14.90;99.90
21104;DHT22;10710;53.398;-1.514;2023-07-22T03:50:05;14.90;99.90
21104;DHT22;10710;53.398;-1.514;2023-07-22T03:52:49;14.90;99.90
21104;DHT22;10710;53.398;-1.514;2023-07-22T03:55:33;14.80;99.90
21104;DHT22;10710;53.398;-1.514;2023-07-22T03:58:17;14.80;99.90
21104;DHT22;10710;53.398;-1.514;2023-07-22T04:01:02;14.90;99.90
21104;DHT22;10710;53.398;-1.514;2023-07-22T04:03:46;14.90;99.90
21104;DHT22;10710;53.398;-1.514;2023-07-22T04:06:30;14.90;99.90
21104;DHT22;10710;53.398;-1.514;2023-07-22T04:09:14;15.00;99.90
21104;DHT22;10710;53.398;-1.514;2023-07-22T04:11:58;15.00;99.90
21104;DHT22;10710;53.398;-1.514;2023-07-22T04:14:42;15.10;99.90
21104;DHT22;10710;53.398;-1.514;2023-07-22T04:17:26;15.10;99.90
21104;DHT22;10710;53.398;-1.514;2023-07-22T04:20:10;15.10;99.90
21104;DHT22;10710;53.398;-1.514;2023-07-22T04:22:55;15.00;99.90
21104;DHT22;10710;53.398;-1.514;2023-07-22T04:25:44;15.00;99.90
21104;DHT22;10710;53.398;-1.514;2023-07-22T04:28:29;15.10;99.90
21104;DHT22;10710;53.398;-1.514;2023-07-22T04:31:13;15.10;99.90
21104;DHT22;10710;53.398;-1.514;2023-07-22T04:33:58;15.00;99.90
21104;DHT22;10710;53.398;-1.514;2023-07-22T04:36:42;15.00;99.90
21104;DHT22;10710;53.398;-1.514;2023-07-22T04:39:27;15.00;99.90
21104;DHT22;10710;53.398;-1.514;2023-07-22T04:42:11;15.00;99.90
21104;DHT22;10710;53.398;-1.514;2023-07-22T04:44:55;15.00;99.90
21104;DHT22;10710;53.398;-1.514;2023-07-22T04:47:39;15.00;99.90
21104;DHT22;10710;53.398;-1.514;2023-07-22T04:50:25;14.90;99.90
21104;DHT22;10710;53.398;-1.514;2023-07-22T04:53:09;14.90;99.90
21104;DHT22;10710;53.398;-1.514;2023-07-22T04:55:54;14.90;99.90
21104;DHT22;10710;53.398;-1.514;2023-07-22T04:58:39;14.80;99.90
21104;DHT22;10710;53.398;-1.514;2023-07-22T05:01:23;14.80;99.90
21104;DHT22;10710;53.398;-1.514;2023-07-22T05:04:07;14.80;99.90
21104;DHT22;10710;53.398;-1.514;2023-07-22T05:06:52;14.90;99.90
21104;DHT22;10710;53.398;-1.514;2023-07-22T05:09:36;15.00;99.90
21104;DHT22;10710;53.398;-1.514;2023-07-22T05:12:21;15.00;99.90
21104;DHT22;10710;53.398;-1.514;2023-07-22T05:15:06;15.10;99.90
21104;DHT22;10710;53.398;-1.514;2023-07-22T05:17:51;15.10;99.90
21104;DHT22;10710;53.398;-1.514;2023-07-22T05:20:35;15.20;99.90
21104;DHT22;10710;53.398;-1.514;2023-07-22T05:23:21;15.10;99.90
21104;DHT22;10710;53.398;-1.514;2023-07-22T05:26:06;15.20;99.90
21104;DHT22;10710;53.398;-1.514;2023-07-22T05:28:50;15.30;99.90
21104;DHT22;10710;53.398;-1.514;2023-07-22T05:31:34;15.40;99.90
21104;DHT22;10710;53.398;-1.514;2023-07-22T05:34:18;15.40;99.90
21104;DHT22;10710;53.398;-1.514;2023-07-22T05:37:03;15.20;99.90
21104;DHT22;10710;53.398;-1.514;2023-07-22T05:39:47;15.20;99.90
21104;DHT22;10710;53.398;-1.514;2023-07-22T05:42:31;15.20;99.90
21104;DHT22;10710;53.398;-1.514;2023-07-22T05:45:15;15.30;99.90
21104;DHT22;10710;53.398;-1.514;2023-07-22T05:48:00;15.30;99.90
21104;DHT22;10710;53.398;-1.514;2023-07-22T05:50:44;15.20;99.90
21104;DHT22;10710;53.398;-1.514;2023-07-22T05:53:28;15.20;99.90
21104;DHT22;10710;53.398;-1.514;2023-07-22T05:56:13;15.20;99.90
21104;DHT22;10710;53.398;-1.514;2023-07-22T05:58:57;15.10;99.90
21104;DHT22;10710;53.398;-1.514;2023-07-22T06:01:41;15.10;99.90
21104;DHT22;10710;53.398;-1.514;2023-07-22T06:04:25;15.10;99.90
21104;DHT22;10710;53.398;-1.514;2023-07-22T06:07:10;15.00;99.90
21104;DHT22;10710;53.398;-1.514;2023-07-22T06:09:54;14.80;99.90
21104;DHT22;10710;53.398;-1.514;2023-07-22T06:12:38;14.90;99.90
21104;DHT22;10710;53.398;-1.514;2023-07-22T06:15:23;15.00;99.90
21104;DHT22;10710;53.398;-1.514;2023-07-22T06:18:07;15.00;99.90
21104;DHT22;10710;53.398;-1.514;2023-07-22T06:20:52;15.10;99.90
21104;DHT22;10710;53.398;-1.514;2023-07-22T06:23:36;15.20;99.90
21104;DHT22;10710;53.398;-1.514;2023-07-22T06:26:21;15.40;99.90
21104;DHT22;10710;53.398;-1.514;2023-07-22T06:29:05;15.50;99.90
21104;DHT22;10710;53.398;-1.514;2023-07-22T06:31:50;15.50;99.90
21104;DHT22;10710;53.398;-1.514;2023-07-22T06:34:34;15.40;99.90
21104;DHT22;10710;53.398;-1.514;2023-07-22T06:37:18;15.50;99.90
21104;DHT22;10710;53.398;-1.514;2023-07-22T06:40:03;15.60;99.90
21104;DHT22;10710;53.398;-1.514;2023-07-22T06:42:47;15.70;99.90
21104;DHT22;10710;53.398;-1.514;2023-07-22T06:45:32;15.80;99.90
21104;DHT22;10710;53.398;-1.514;2023-07-22T06:48:17;15.90;99.90
21104;DHT22;10710;53.398;-1.514;2023-07-22T06:51:01;15.80;99.90
21104;DHT22;10710;53.398;-1.514;2023-07-22T06:53:45;16.00;99.90
21104;DHT22;10710;53.398;-1.514;2023-07-22T06:56:30;15.80;99.90
21104;DHT22;10710;53.398;-1.514;2023-07-22T06:59:14;15.80;99.90
21104;DHT22;10710;53.398;-1.514;2023-07-22T07:01:58;15.80;99.90
21104;DHT22;10710;53.398;-1.514;2023-07-22T07:04:43;15.90;99.90
21104;DHT22;10710;53.398;-1.514;2023-07-22T07:07:27;15.70;99.90
21104;DHT22;10710;53.398;-1.514;2023-07-22T07:10:11;15.70;99.90
21104;DHT22;10710;53.398;-1.514;2023-07-22T07:12:55;15.70;99.90
21104;DHT22;10710;53.398;-1.514;2023-07-22T07:15:39;15.80;99.90
21104;DHT22;10710;53.398;-1.514;2023-07-22T07:18:23;15.90;99.90
21104;DHT22;10710;53.398;-1.514;2023-07-22T07:21:08;15.90;99.90
21104;DHT22;10710;53.398;-1.514;2023-07-22T07:23:53;15.90;99.90
21104;DHT22;10710;53.398;-1.514;2023-07-22T07:26:37;15.80;99.90
21104;DHT22;10710;53.398;-1.514;2023-07-22T07:29:22;15.90;99.90
21104;DHT22;10710;53.398;-1.514;2023-07-22T07:32:06;16.00;99.90
21104;DHT22;10710;53.398;-1.514;2023-07-22T07:34:50;16.00;99.90
21104;DHT22;10710;53.398;-1.514;2023-07-22T07:37:35;15.90;99.90
21104;DHT22;10710;53.398;-1.514;2023-07-22T07:40:19;15.90;99.90
21104;DHT22;10710;53.398;-1.514;2023-07-22T07:43:04;15.80;99.90
21104;DHT22;10710;53.398;-1.514;2023-07-22T07:45:48;15.90;99.90
21104;DHT22;10710;53.398;-1.514;2023-07-22T07:48:32;15.90;99.90
21104;DHT22;10710;53.398;-1.514;2023-07-22T07:51:17;15.80;99.90
21104;DHT22;10710;53.398;-1.514;2023-07-22T07:54:02;15.80;99.90
21104;DHT22;10710;53.398;-1.514;2023-07-22T07:56:48;15.70;99.90
21104;DHT22;10710;53.398;-1.514;2023-07-22T07:59:32;15.70;99.90
21104;DHT22;10710;53.398;-1.514;2023-07-22T08:02:17;15.80;99.90
21104;DHT22;10710;53.398;-1.514;2023-07-22T08:05:01;15.70;99.90
21104;DHT22;10710;53.398;-1.514;2023-07-22T08:07:45;15.60;99.90
21104;DHT22;10710;53.398;-1.514;2023-07-22T08:10:29;15.50;99.90
21104;DHT22;10710;53.398;-1.514;2023-07-22T08:13:14;15.40;99.90
21104;DHT22;10710;53.398;-1.514;2023-07-22T08:15:58;15.40;99.90
21104;DHT22;10710;53.398;-1.514;2023-07-22T08:18:43;15.30;99.90
21104;DHT22;10710;53.398;-1.514;2023-07-22T08:21:27;15.40;99.90
21104;DHT22;10710;53.398;-1.514;2023-07-22T08:24:11;15.40;99.90
21104;DHT22;10710;53.398;-1.514;2023-07-22T08:26:55;15.40;99.90
21104;DHT22;10710;53.398;-1.514;2023-07-22T08:29:39;15.40;99.90
21104;DHT22;10710;53.398;-1.514;2023-07-22T08:32:23;15.50;99.90
21104;DHT22;10710;53.398;-1.514;2023-07-22T08:35:08;15.60;99.90
21104;DHT22;10710;53.398;-1.514;2023-07-22T08:37:52;15.60;99.90
21104;DHT22;10710;53.398;-1.514;2023-07-22T08:40:39;15.60;99.90
21104;DHT22;10710;53.398;-1.514;2023-07-22T08:43:24;15.60;99.90
21104;DHT22;10710;53.398;-1.514;2023-07-22T08:46:12;15.70;99.90
21104;DHT22;10710;53.398;-1.514;2023-07-22T08:48:57;15.80;99.90
21104;DHT22;10710;53.398;-1.514;2023-07-22T08:51:44;15.90;99.90
21104;DHT22;10710;53.398;-1.514;2023-07-22T08:54:29;15.90;99.90
21104;DHT22;10710;53.398;-1.514;2023-07-22T08:57:14;15.80;99.90
21104;DHT22;10710;53.398;-1.514;2023-07-22T08:59:59;15.90;99.90
21104;DHT22;10710;53.398;-1.514;2023-07-22T09:02:44;16.00;99.90
21104;DHT22;10710;53.398;-1.514;2023-07-22T09:05:29;16.00;99.90
21104;DHT22;10710;53.398;-1.514;2023-07-22T09:08:15;16.10;99.90
21104;DHT22;10710;53.398;-1.514;2023-07-22T09:11:02;16.00;99.90
21104;DHT22;10710;53.398;-1.514;2023-07-22T09:13:47;16.00;99.90
21104;DHT22;10710;53.398;-1.514;2023-07-22T09:16:32;16.20;99.90
21104;DHT22;10710;53.398;-1.514;2023-07-22T09:19:16;16.20;99.90
21104;DHT22;10710;53.398;-1.514;2023-07-22T09:22:01;16.10;99.90
21104;DHT22;10710;53.398;-1.514;2023-07-22T09:24:46;16.10;99.90
21104;DHT22;10710;53.398;-1.514;2023-07-22T09:27:33;16.00;99.90
21104;DHT22;10710;53.398;-1.514;2023-07-22T09:33:22;16.00;99.90
21104;DHT22;10710;53.398;-1.514;2023-07-22T09:36:06;16.10;99.90
21104;DHT22;10710;53.398;-1.514;2023-07-22T09:39:00;16.10;99.90
21104;DHT22;10710;53.398;-1.514;2023-07-22T09:41:48;16.20;99.90
21104;DHT22;10710;53.398;-1.514;2023-07-22T09:44:32;16.20;99.90
21104;DHT22;10710;53.398;-1.514;2023-07-22T09:47:16;16.30;99.90
21104;DHT22;10710;53.398;-1.514;2023-07-22T09:50:00;16.40;99.90
21104;DHT22;10710;53.398;-1.514;2023-07-22T09:52:50;16.40;99.90
21104;DHT22;10710;53.398;-1.514;2023-07-22T09:55:35;16.30;99.90
21104;DHT22;10710;53.398;-1.514;2023-07-22T09:58:19;16.30;99.90
21104;DHT22;10710;53.398;-1.514;2023-07-22T10:01:04;16.50;99.90
21104;DHT22;10710;53.398;-1.514;2023-07-22T10:03:54;16.50;99.90
21104;DHT22;10710;53.398;-1.514;2023-07-22T10:06:39;16.40;99.90
21104;DHT22;10710;53.398;-1.514;2023-07-22T10:09:27;16.40;99.90
21104;DHT22;10710;53.398;-1.514;2023-07-22T10:12:12;16.50;99.90
21104;DHT22;10710;53.398;-1.514;2023-07-22T10:14:59;16.60;99.90
21104;DHT22;10710;53.398;-1.514;2023-07-22T10:17:45;16.80;99.90
21104;DHT22;10710;53.398;-1.514;2023-07-22T10:20:30;16.90;99.90
21104;DHT22;10710;53.398;-1.514;2023-07-22T10:23:18;17.00;99.90
21104;DHT22;10710;53.398;-1.514;2023-07-22T10:26:02;17.20;99.90
21104;DHT22;10710;53.398;-1.514;2023-07-22T10:28:48;17.20;99.90
21104;DHT22;10710;53.398;-1.514;2023-07-22T10:31:32;17.20;99.90
21104;DHT22;10710;53.398;-1.514;2023-07-22T10:34:25;17.20;99.90
21104;DHT22;10710;53.398;-1.514;2023-07-22T10:37:10;17.10;99.90
21104;DHT22;10710;53.398;-1.514;2023-07-22T10:39:59;17.00;99.90
21104;DHT22;10710;53.398;-1.514;2023-07-22T10:43:11;16.90;99.90
21104;DHT22;10710;53.398;-1.514;2023-07-22T10:45:57;17.00;99.90
21104;DHT22;10710;53.398;-1.514;2023-07-22T10:48:42;17.40;99.90
21104;DHT22;10710;53.398;-1.514;2023-07-22T10:51:36;17.40;99.90
21104;DHT22;10710;53.398;-1.514;2023-07-22T10:54:35;17.40;99.90
21104;DHT22;10710;53.398;-1.514;2023-07-22T10:57:24;17.50;99.90
21104;DHT22;10710;53.398;-1.514;2023-07-22T11:00:21;17.50;99.90
21104;DHT22;10710;53.398;-1.514;2023-07-22T11:03:10;17.50;99.90
21104;DHT22;10710;53.398;-1.514;2023-07-22T11:05:55;17.50;99.90
21104;DHT22;10710;53.398;-1.514;2023-07-22T11:08:40;17.30;99.90
21104;DHT22;10710;53.398;-1.514;2023-07-22T11:11:55;17.20;99.90
21104;DHT22;10710;53.398;-1.514;2023-07-22T11:17:31;17.30;99.90
21104;DHT22;10710;53.398;-1.514;2023-07-22T11:20:15;17.50;99.90
21104;DHT22;10710;53.398;-1.514;2023-07-22T11:23:00;17.60;99.90
21104;DHT22;10710;53.398;-1.514;2023-07-22T11:25:45;17.60;99.90
21104;DHT22;10710;53.398;-1.514;2023-07-22T11:28:30;17.60;99.90
21104;DHT22;10710;53.398;-1.514;2023-07-22T11:31:15;17.60;99.90
21104;DHT22;10710;53.398;-1.514;2023-07-22T11:33:59;17.60;99.90
21104;DHT22;10710;53.398;-1.514;2023-07-22T11:36:45;17.80;99.90
21104;DHT22;10710;53.398;-1.514;2023-07-22T11:39:30;17.80;99.90
21104;DHT22;10710;53.398;-1.514;2023-07-22T11:42:17;17.90;99.90
21104;DHT22;10710;53.398;-1.514;2023-07-22T11:45:01;18.10;99.90
21104;DHT22;10710;53.398;-1.514;2023-07-22T11:47:46;18.20;99.90
21104;DHT22;10710;53.398;-1.514;2023-07-22T11:50:33;18.30;99.90
21104;DHT22;10710;53.398;-1.514;2023-07-22T11:53:18;18.20;99.90
21104;DHT22;10710;53.398;-1.514;2023-07-22T11:56:03;18.20;99.90
21104;DHT22;10710;53.398;-1.514;2023-07-22T11:58:56;18.20;99.90
21104;DHT22;10710;53.398;-1.514;2023-07-22T12:01:46;18.10;99.90
21104;DHT22;10710;53.398;-1.514;2023-07-22T12:04:30;17.90;99.90
21104;DHT22;10710;53.398;-1.514;2023-07-22T12:07:24;18.00;99.90
21104;DHT22;10710;53.398;-1.514;2023-07-22T12:10:09;17.80;99.90
21104;DHT22;10710;53.398;-1.514;2023-07-22T12:12:54;17.90;99.90
21104;DHT22;10710;53.398;-1.514;2023-07-22T12:15:39;18.00;99.90
21104;DHT22;10710;53.398;-1.514;2023-07-22T12:18:23;18.00;99.90
21104;DHT22;10710;53.398;-1.514;2023-07-22T12:21:07;18.10;99.90
21104;DHT22;10710;53.398;-1.514;2023-07-22T12:23:53;18.20;99.90
21104;DHT22;10710;53.398;-1.514;2023-07-22T12:26:38;18.20;99.90
21104;DHT22;10710;53.398;-1.514;2023-07-22T12:29:22;18.00;99.90
21104;DHT22;10710;53.398;-1.514;2023-07-22T12:32:07;18.20;99.90
21104;DHT22;10710;53.398;-1.514;2023-07-22T12:34:51;18.30;99.90
21104;DHT22;10710;53.398;-1.514;2023-07-22T12:37:36;18.20;99.90
21104;DHT22;10710;53.398;-1.514;2023-07-22T12:40:20;18.30;99.90
21104;DHT22;10710;53.398;-1.514;2023-07-22T12:43:05;18.10;99.90
21104;DHT22;10710;53.398;-1.514;2023-07-22T12:45:49;18.10;99.90
21104;DHT22;10710;53.398;-1.514;2023-07-22T12:48:33;18.00;99.90
21104;DHT22;10710;53.398;-1.514;2023-07-22T12:51:18;18.20;99.90
21104;DHT22;10710;53.398;-1.514;2023-07-22T12:54:02;18.20;99.90
21104;DHT22;10710;53.398;-1.514;2023-07-22T12:56:46;18.40;99.90
21104;DHT22;10710;53.398;-1.514;2023-07-22T12:59:30;18.50;99.90
21104;DHT22;10710;53.398;-1.514;2023-07-22T13:02:16;18.50;99.90
21104;DHT22;10710;53.398;-1.514;2023-07-22T13:05:01;18.40;99.90
21104;DHT22;10710;53.398;-1.514;2023-07-22T13:07:45;18.30;99.90
21104;DHT22;10710;53.398;-1.514;2023-07-22T13:10:31;18.40;99.90
21104;DHT22;10710;53.398;-1.514;2023-07-22T13:13:17;18.20;99.90
21104;DHT22;10710;53.398;-1.514;2023-07-22T13:16:01;18.10;99.90
21104;DHT22;10710;53.398;-1.514;2023-07-22T13:18:46;18.10;99.90
21104;DHT22;10710;53.398;-1.514;2023-07-22T13:21:30;18.30;99.90
21104;DHT22;10710;53.398;-1.514;2023-07-22T13:24:15;18.20;99.90
21104;DHT22;10710;53.398;-1.514;2023-07-22T13:26:59;18.30;99.90
21104;DHT22;10710;53.398;-1.514;2023-07-22T13:29:43;18.50;99.90
21104;DHT22;10710;53.398;-1.514;2023-07-22T13:32:27;18.60;99.90
21104;DHT22;10710;53.398;-1.514;2023-07-22T13:35:11;18.90;99.90
21104;DHT22;10710;53.398;-1.514;2023-07-22T13:37:56;18.80;99.90
21104;DHT22;10710;53.398;-1.514;2023-07-22T13:40:40;18.80;99.90
21104;DHT22;10710;53.398;-1.514;2023-07-22T13:43:25;18.70;99.90
21104;DHT22;10710;53.398;-1.514;2023-07-22T13:46:11;18.80;99.90
21104;DHT22;10710;53.398;-1.514;2023-07-22T13:48:55;18.90;99.90
21104;DHT22;10710;53.398;-1.514;2023-07-22T13:51:39;19.00;99.90
21104;DHT22;10710;53.398;-1.514;2023-07-22T13:54:23;18.80;99.90
21104;DHT22;10710;53.398;-1.514;2023-07-22T13:57:08;18.70;99.90
21104;DHT22;10710;53.398;-1.514;2023-07-22T13:59:54;18.70;99.90
21104;DHT22;10710;53.398;-1.514;2023-07-22T14:02:39;18.80;99.90
21104;DHT22;10710;53.398;-1.514;2023-07-22T14:05:24;19.00;99.90
21104;DHT22;10710;53.398;-1.514;2023-07-22T14:08:09;19.00;99.90
21104;DHT22;10710;53.398;-1.514;2023-07-22T14:10:54;19.20;99.90
21104;DHT22;10710;53.398;-1.514;2023-07-22T14:13:40;19.10;99.90
21104;DHT22;10710;53.398;-1.514;2023-07-22T14:16:25;19.00;99.90
21104;DHT22;10710;53.398;-1.514;2023-07-22T14:19:10;19.10;99.90
21104;DHT22;10710;53.398;-1.514;2023-07-22T14:21:55;19.00;99.90
21104;DHT22;10710;53.398;-1.514;2023-07-22T14:24:40;18.80;99.90
21104;DHT22;10710;53.398;-1.514;2023-07-22T14:27:24;18.60;99.90
21104;DHT22;10710;53.398;-1.514;2023-07-22T14:30:09;18.80;99.90
21104;DHT22;10710;53.398;-1.514;2023-07-22T14:32:54;18.80;99.90
21104;DHT22;10710;53.398;-1.514;2023-07-22T14:35:39;18.80;99.90
21104;DHT22;10710;53.398;-1.514;2023-07-22T14:38:23;18.80;99.90
21104;DHT22;10710;53.398;-1.514;2023-07-22T14:41:08;18.80;99.90
21104;DHT22;10710;53.398;-1.514;2023-07-22T14:43:53;18.90;99.90
21104;DHT22;10710;53.398;-1.514;2023-07-22T14:46:38;19.10;99.90
21104;DHT22;10710;53.398;-1.514;2023-07-22T14:49:22;19.10;99.90
21104;DHT22;10710;53.398;-1.514;2023-07-22T14:52:06;19.10;99.90
21104;DHT22;10710;53.398;-1.514;2023-07-22T14:54:50;19.30;99.90
21104;DHT22;10710;53.398;-1.514;2023-07-22T14:57:34;19.30;99.90
21104;DHT22;10710;53.398;-1.514;2023-07-22T15:00:19;19.10;99.90
21104;DHT22;10710;53.398;-1.514;2023-07-22T15:03:04;19.30;99.90
21104;DHT22;10710;53.398;-1.514;2023-07-22T15:05:48;19.50;99.90
21104;DHT22;10710;53.398;-1.514;2023-07-22T15:08:32;19.50;99.90
21104;DHT22;10710;53.398;-1.514;2023-07-22T15:11:17;19.50;99.90
21104;DHT22;10710;53.398;-1.514;2023-07-22T15:14:02;19.50;99.90
21104;DHT22;10710;53.398;-1.514;2023-07-22T15:16:46;19.00;99.90
21104;DHT22;10710;53.398;-1.514;2023-07-22T15:19:30;19.10;99.90
21104;DHT22;10710;53.398;-1.514;2023-07-22T15:22:14;19.30;99.90
21104;DHT22;10710;53.398;-1.514;2023-07-22T15:24:58;19.50;99.90
21104;DHT22;10710;53.398;-1.514;2023-07-22T15:27:42;19.60;99.90
21104;DHT22;10710;53.398;-1.514;2023-07-22T15:30:27;19.60;99.90
21104;DHT22;10710;53.398;-1.514;2023-07-22T15:33:11;19.50;99.90
21104;DHT22;10710;53.398;-1.514;2023-07-22T15:35:55;19.40;99.90
21104;DHT22;10710;53.398;-1.514;2023-07-22T15:38:40;19.60;99.90
21104;DHT22;10710;53.398;-1.514;2023-07-22T15:41:24;19.40;99.90
21104;DHT22;10710;53.398;-1.514;2023-07-22T15:44:09;19.40;99.90
21104;DHT22;10710;53.398;-1.514;2023-07-22T15:46:54;19.20;99.90
21104;DHT22;10710;53.398;-1.514;2023-07-22T15:49:39;19.20;99.90
21104;DHT22;10710;53.398;-1.514;2023-07-22T15:52:23;19.40;99.90
21104;DHT22;10710;53.398;-1.514;2023-07-22T15:55:09;19.30;99.90
21104;DHT22;10710;53.398;-1.514;2023-07-22T15:57:53;19.00;99.90
21104;DHT22;10710;53.398;-1.514;2023-07-22T16:00:37;19.20;99.90
21104;DHT22;10710;53.398;-1.514;2023-07-22T16:03:21;19.30;99.90
21104;DHT22;10710;53.398;-1.514;2023-07-22T16:06:05;19.40;99.90
21104;DHT22;10710;53.398;-1.514;2023-07-22T16:08:49;19.20;99.90
21104;DHT22;10710;53.398;-1.514;2023-07-22T16:11:34;19.30;99.90
21104;DHT22;10710;53.398;-1.514;2023-07-22T16:14:18;19.60;99.90
21104;DHT22;10710;53.398;-1.514;2023-07-22T16:17:02;19.60;99.90
21104;DHT22;10710;53.398;-1.514;2023-07-22T16:19:47;19.70;99.90
21104;DHT22;10710;53.398;-1.514;2023-07-22T16:22:31;19.80;99.90
21104;DHT22;10710;53.398;-1.514;2023-07-22T16:25:15;19.70;99.90
21104;DHT22;10710;53.398;-1.514;2023-07-22T16:27:59;19.40;99.90
21104;DHT22;10710;53.398;-1.514;2023-07-22T16:30:43;19.50;99.90
21104;DHT22;10710;53.398;-1.514;2023-07-22T16:33:27;19.50;99.90
21104;DHT22;10710;53.398;-1.514;2023-07-22T16:36:11;19.50;99.90
21104;DHT22;10710;53.398;-1.514;2023-07-22T16:38:55;19.50;99.90
21104;DHT22;10710;53.398;-1.514;2023-07-22T16:41:40;19.50;99.90
21104;DHT22;10710;53.398;-1.514;2023-07-22T16:44:24;19.40;99.90
21104;DHT22;10710;53.398;-1.514;2023-07-22T16:47:09;19.20;99.90
21104;DHT22;10710;53.398;-1.514;2023-07-22T16:49:53;19.20;99.90
21104;DHT22;10710;53.398;-1.514;2023-07-22T16:52:39;19.10;99.90
21104;DHT22;10710;53.398;-1.514;2023-07-22T16:55:23;19.20;99.90
21104;DHT22;10710;53.398;-1.514;2023-07-22T16:58:07;19.00;99.90
21104;DHT22;10710;53.398;-1.514;2023-07-22T17:00:51;19.00;99.90
21104;DHT22;10710;53.398;-1.514;2023-07-22T17:03:36;19.10;99.90
21104;DHT22;10710;53.398;-1.514;2023-07-22T17:06:21;19.00;99.90
21104;DHT22;10710;53.398;-1.514;2023-07-22T17:09:05;19.00;99.90
21104;DHT22;10710;53.398;-1.514;2023-07-22T17:11:49;19.20;99.90